Time;durP1;ratioP1;P1;durP2;ratioP2;P2;SDS_P1;SDS_P2;PMS_P1;PMS_P2;Temp;Humidity;BMP_temperature;BMP_pressure;BME280_temperature;BME280_humidity;BME280_pressure;Samples;Min_cycle;Max_cycle;Signal;HPM_P1;HPM_P2
2024/01/02 00:01:39;;;;;;;0.80;0.80;;;6.50;99.90;;;;;;5030480;28;20195;-80
2024/01/02 00:04:06;;;;;;;0.50;0.40;;;6.50;99.90;;;;;;5023021;28;20228;-79
2024/01/02 00:06:33;;;;;;;0.50;0.40;;;6.50;99.90;;;;;;5029821;28;20204;-79
2024/01/02 00:09:00;;;;;;;1.92;1.75;;;6.50;99.90;;;;;;5028190;28;20730;-77
2024/01/02 00:11:26;;;;;;;0.50;0.40;;;6.50;99.90;;;;;;5018369;28;20212;-80
2024/01/02 00:13:54;;;;;;;0.50;0.40;;;6.60;99.90;;;;;;5026295;28;20606;-80
2024/01/02 00:16:21;;;;;;;0.60;0.60;;;6.60;99.90;;;;;;5018065;28;20196;-79
2024/01/02 00:18:48;;;;;;;0.50;0.40;;;6.60;99.90;;;;;;5026524;28;20200;-81
2024/01/02 00:21:14;;;;;;;0.65;0.65;;;6.60;99.90;;;;;;5025755;28;20205;-81
2024/01/02 00:23:41;;;;;;;0.50;0.50;;;6.60;99.90;;;;;;5025869;28;20591;-80
2024/01/02 00:26:08;;;;;;;0.50;0.40;;;6.60;99.90;;;;;;5025823;28;20196;-78
2024/01/02 00:28:35;;;;;;;1.67;1.58;;;6.60;99.90;;;;;;5017184;28;20216;-79
2024/01/02 00:31:03;;;;;;;0.50;0.40;;;6.60;99.90;;;;;;5033806;28;20221;-79
2024/01/02 00:33:30;;;;;;;0.50;0.40;;;6.60;99.90;;;;;;5036385;28;20235;-77
2024/01/02 00:35:57;;;;;;;1.58;0.70;;;6.60;99.90;;;;;;5028142;28;20202;-80
2024/01/02 00:38:27;;;;;;;0.80;0.50;;;6.60;99.90;;;;;;5024851;28;20200;-79
2024/01/02 00:40:53;;;;;;;0.50;0.40;;;6.60;99.90;;;;;;5024350;28;20200;-80
2024/01/02 00:43:20;;;;;;;0.77;0.40;;;6.60;99.90;;;;;;5029805;28;20232;-79
2024/01/02 00:45:47;;;;;;;0.47;0.40;;;6.70;99.90;;;;;;5029233;28;20681;-79
2024/01/02 00:48:15;;;;;;;8.38;0.82;;;6.70;99.90;;;;;;5025559;28;20202;-79
2024/01/02 00:50:42;;;;;;;1.40;0.77;;;6.70;99.90;;;;;;5024685;28;20201;-81
2024/01/02 00:53:08;;;;;;;0.43;0.40;;;6.70;99.90;;;;;;5017358;28;20216;-79
2024/01/02 00:55:35;;;;;;;1.20;0.75;;;6.70;99.90;;;;;;5026960;28;20290;-80
2024/01/02 00:58:03;;;;;;;0.50;0.38;;;6.80;99.90;;;;;;5026975;28;20204;-81
2024/01/02 01:00:30;;;;;;;0.50;0.40;;;6.80;99.90;;;;;;5027381;28;20196;-79
2024/01/02 01:02:56;;;;;;;0.50;0.40;;;6.80;99.90;;;;;;5019549;28;20203;-80
2024/01/02 01:05:26;;;;;;;2.45;0.73;;;6.80;99.90;;;;;;5035135;28;20214;-79
2024/01/02 01:07:52;;;;;;;3.85;0.75;;;6.80;99.90;;;;;;5025950;28;20195;-79
2024/01/02 01:10:19;;;;;;;1.25;0.60;;;6.70;99.90;;;;;;5024320;28;20223;-80
2024/01/02 01:12:46;;;;;;;0.50;0.50;;;6.70;99.90;;;;;;5021501;28;20663;-80
2024/01/02 01:15:13;;;;;;;0.50;0.40;;;6.70;99.90;;;;;;5026668;28;20203;-80
2024/01/02 01:17:39;;;;;;;0.52;0.52;;;6.70;99.90;;;;;;5021267;28;20203;-79
2024/01/02 01:20:08;;;;;;;0.50;0.40;;;6.70;99.90;;;;;;5023841;28;20188;-80
2024/01/02 01:22:37;;;;;;;1.13;0.88;;;6.70;99.90;;;;;;5016720;28;20232;-81
2024/01/02 01:25:04;;;;;;;0.50;0.40;;;6.70;99.90;;;;;;5024780;28;20217;-80
2024/01/02 01:27:31;;;;;;;0.50;0.40;;;6.70;99.90;;;;;;5021425;28;20250;-79
2024/01/02 01:29:58;;;;;;;0.40;0.40;;;6.70;99.90;;;;;;5028693;28;20638;-81
2024/01/02 01:32:24;;;;;;;15.63;1.35;;;6.70;99.90;;;;;;5017757;28;20545;-79
2024/01/02 01:34:51;;;;;;;2.28;1.08;;;6.70;99.90;;;;;;5031063;28;20225;-80
2024/01/02 01:37:18;;;;;;;1.48;0.65;;;6.70;99.90;;;;;;5025229;28;20203;-81
2024/01/02 01:39:46;;;;;;;1.17;1.13;;;6.70;99.90;;;;;;5024148;28;20192;-81
2024/01/02 01:42:13;;;;;;;0.40;0.40;;;6.70;99.90;;;;;;5032655;28;20195;-81
2024/01/02 01:44:40;;;;;;;0.80;0.50;;;6.70;99.90;;;;;;5015683;28;20219;-81
2024/01/02 01:47:07;;;;;;;0.50;0.50;;;6.70;99.90;;;;;;5024460;28;20200;-81
2024/01/02 01:49:34;;;;;;;1.58;0.63;;;6.60;99.90;;;;;;5023448;28;20219;-80
2024/01/02 01:52:01;;;;;;;1.45;0.50;;;6.60;99.90;;;;;;5024078;28;20196;-80
2024/01/02 01:54:28;;;;;;;0.60;0.52;;;6.70;99.90;;;;;;5023326;28;20217;-81
2024/01/02 01:56:57;;;;;;;0.40;0.40;;;6.70;99.90;;;;;;5023649;28;20200;-80
2024/01/02 01:59:24;;;;;;;5.55;0.85;;;6.70;99.90;;;;;;5031944;28;20274;-81
2024/01/02 02:01:51;;;;;;;0.47;0.40;;;6.70;99.90;;;;;;5024485;28;20207;-81
2024/01/02 02:04:19;;;;;;;0.40;0.40;;;6.70;99.90;;;;;;5024915;28;20224;-81
2024/01/02 02:06:45;;;;;;;2.80;1.40;;;6.70;99.90;;;;;;5030663;28;20198;-81
2024/01/02 02:09:13;;;;;;;1.63;0.65;;;6.70;99.90;;;;;;5025366;28;20220;-82
2024/01/02 02:11:40;;;;;;;0.50;0.40;;;6.60;99.90;;;;;;5023354;28;20564;-80
2024/01/02 02:14:09;;;;;;;11.80;1.85;;;6.60;99.90;;;;;;5022665;28;20220;-80
2024/01/02 02:16:36;;;;;;;0.60;0.60;;;6.60;99.90;;;;;;5026185;28;20618;-82
2024/01/02 02:19:03;;;;;;;0.40;0.40;;;6.70;99.90;;;;;;5016652;28;20207;-82
2024/01/02 02:21:31;;;;;;;0.40;0.40;;;6.70;99.90;;;;;;5025090;28;20199;-81
2024/01/02 02:23:59;;;;;;;1.13;0.50;;;6.60;99.90;;;;;;5028300;28;20216;-81
2024/01/02 02:26:25;;;;;;;0.40;0.40;;;6.60;99.90;;;;;;5023159;28;20202;-81
2024/01/02 02:28:52;;;;;;;0.40;0.40;;;6.70;99.90;;;;;;5014401;28;20270;-79
2024/01/02 02:31:19;;;;;;;0.40;0.40;;;6.70;99.90;;;;;;5013412;28;20710;-82
2024/01/02 02:33:46;;;;;;;4.97;0.85;;;6.70;99.90;;;;;;5022209;28;20217;-82
2024/01/02 02:36:13;;;;;;;5.80;1.00;;;6.70;99.90;;;;;;5023603;28;20579;-80
2024/01/02 02:38:40;;;;;;;2.58;0.77;;;6.60;99.90;;;;;;5023766;28;20192;-82
2024/01/02 02:41:08;;;;;;;0.50;0.40;;;6.70;99.90;;;;;;5031782;28;20196;-80
2024/01/02 02:43:35;;;;;;;0.50;0.50;;;6.70;99.90;;;;;;5031856;28;20223;-81
2024/01/02 02:46:02;;;;;;;0.50;0.50;;;6.60;99.90;;;;;;5022891;28;20195;-82
2024/01/02 02:48:28;;;;;;;3.42;0.73;;;6.60;99.90;;;;;;5027574;28;20210;-81
2024/01/02 02:50:55;;;;;;;0.60;0.60;;;6.60;99.90;;;;;;5026329;28;20215;-79
2024/01/02 02:53:22;;;;;;;0.50;0.40;;;6.60;99.90;;;;;;5031771;28;20753;-81
2024/01/02 02:55:49;;;;;;;0.40;0.40;;;6.60;99.90;;;;;;5018791;28;20192;-80
2024/01/02 02:58:17;;;;;;;0.68;0.63;;;6.60;99.90;;;;;;5033011;28;20196;-81
2024/01/02 03:00:44;;;;;;;0.40;0.40;;;6.60;99.90;;;;;;5020588;28;20196;-80
2024/01/02 03:03:10;;;;;;;0.40;0.40;;;6.60;99.90;;;;;;5021261;28;20402;-81
2024/01/02 03:05:37;;;;;;;0.50;0.40;;;6.60;99.90;;;;;;5021260;28;20280;-80
2024/01/02 03:08:04;;;;;;;0.40;0.40;;;6.60;99.90;;;;;;5020146;28;20196;-80
2024/01/02 03:10:31;;;;;;;2.60;2.00;;;6.60;99.90;;;;;;5020985;28;20220;-80
2024/01/02 03:12:58;;;;;;;0.40;0.40;;;6.60;99.90;;;;;;5013408;28;20203;-81
2024/01/02 03:15:26;;;;;;;0.40;0.40;;;6.60;99.90;;;;;;5029575;28;20204;-80
2024/01/02 03:17:53;;;;;;;0.40;0.40;;;6.60;99.90;;;;;;5026519;28;20698;-80
2024/01/02 03:20:20;;;;;;;0.88;0.73;;;6.60;99.90;;;;;;5030922;28;20196;-80
2024/01/02 03:22:46;;;;;;;0.60;0.60;;;6.60;99.90;;;;;;5017261;28;20327;-80
2024/01/02 03:25:13;;;;;;;0.40;0.40;;;6.60;99.90;;;;;;5023814;28;20192;-79
2024/01/02 03:27:40;;;;;;;0.50;0.50;;;6.60;99.90;;;;;;5023325;28;20207;-80
2024/01/02 03:30:08;;;;;;;0.40;0.40;;;6.60;99.90;;;;;;5033267;28;20211;-81
2024/01/02 03:32:36;;;;;;;0.40;0.40;;;6.60;99.90;;;;;;5015714;28;20663;-79
2024/01/02 03:35:03;;;;;;;0.55;0.55;;;6.60;99.90;;;;;;5030366;28;20269;-80
2024/01/02 03:37:30;;;;;;;0.40;0.40;;;6.60;99.90;;;;;;5026634;28;20204;-80
2024/01/02 03:39:57;;;;;;;0.50;0.40;;;6.60;99.90;;;;;;5029103;28;20194;-80
2024/01/02 03:42:23;;;;;;;0.40;0.40;;;6.60;99.90;;;;;;5031261;28;20199;-80
2024/01/02 03:44:50;;;;;;;0.40;0.40;;;6.60;99.90;;;;;;5019744;28;20214;-80
2024/01/02 03:47:17;;;;;;;0.40;0.40;;;6.60;99.90;;;;;;5026004;28;20204;-80
2024/01/02 03:49:45;;;;;;;0.40;0.40;;;6.60;99.90;;;;;;5022122;28;20219;-80
2024/01/02 03:52:12;;;;;;;0.40;0.40;;;6.60;99.90;;;;;;5023005;28;20212;-81
2024/01/02 03:54:39;;;;;;;0.60;0.40;;;6.70;99.90;;;;;;5030490;28;20218;-81
2024/01/02 03:57:05;;;;;;;0.40;0.40;;;6.60;99.90;;;;;;5014700;28;20587;-80
2024/01/02 03:59:32;;;;;;;0.47;0.47;;;6.60;99.90;;;;;;5024827;28;20640;-80
2024/01/02 04:01:59;;;;;;;0.40;0.40;;;6.60;99.90;;;;;;5028459;28;20203;-80
2024/01/02 04:04:26;;;;;;;1.70;1.15;;;6.70;99.90;;;;;;5023825;28;20216;-81
2024/01/02 04:06:54;;;;;;;0.40;0.40;;;6.70;99.90;;;;;;5029338;28;20189;-80
2024/01/02 04:09:20;;;;;;;0.50;0.40;;;6.70;99.90;;;;;;5030355;28;20199;-81
2024/01/02 04:11:48;;;;;;;1.67;0.40;;;6.70;99.90;;;;;;5022971;28;20559;-81
2024/01/02 04:14:15;;;;;;;0.50;0.40;;;6.70;99.90;;;;;;5015506;28;20226;-81
2024/01/02 04:16:41;;;;;;;0.40;0.40;;;6.70;99.90;;;;;;5010498;28;20199;-80
2024/01/02 04:19:08;;;;;;;0.50;0.40;;;6.70;99.90;;;;;;5023398;28;20206;-81
2024/01/02 04:21:35;;;;;;;0.40;0.40;;;6.70;99.90;;;;;;5030199;28;20200;-82
2024/01/02 04:24:03;;;;;;;1.90;0.50;;;6.70;99.90;;;;;;5033453;28;20227;-82
2024/01/02 04:26:30;;;;;;;0.50;0.40;;;6.70;99.90;;;;;;5028059;28;20196;-82
2024/01/02 04:28:56;;;;;;;1.02;0.50;;;6.70;99.90;;;;;;5027387;28;20200;-81
2024/01/02 04:31:23;;;;;;;0.50;0.40;;;6.70;99.90;;;;;;5027598;28;20227;-82
2024/01/02 04:33:50;;;;;;;0.95;0.63;;;6.70;99.90;;;;;;5031816;28;20694;-82
2024/01/02 04:36:17;;;;;;;0.40;0.40;;;6.70;99.90;;;;;;5022939;28;20196;-82
2024/01/02 04:38:43;;;;;;;0.40;0.30;;;6.70;99.90;;;;;;5011165;28;20197;-82
2024/01/02 04:41:13;;;;;;;0.40;0.40;;;6.70;99.90;;;;;;5030819;28;20197;-80
2024/01/02 04:43:39;;;;;;;0.40;0.40;;;6.80;99.90;;;;;;5032644;28;20252;-81
2024/01/02 04:46:06;;;;;;;0.40;0.40;;;6.80;99.90;;;;;;5035048;28;20678;-82
2024/01/02 04:48:33;;;;;;;0.50;0.40;;;6.80;99.90;;;;;;5031954;28;20295;-81
2024/01/02 04:50:59;;;;;;;0.43;0.38;;;6.80;99.90;;;;;;5032321;28;20423;-82
2024/01/02 04:53:27;;;;;;;0.40;0.40;;;6.80;99.90;;;;;;5028012;28;20228;-82
2024/01/02 04:55:53;;;;;;;0.40;0.30;;;6.80;99.90;;;;;;5032107;28;20203;-82
2024/01/02 04:58:21;;;;;;;0.40;0.30;;;6.90;99.90;;;;;;5031557;28;20661;-80
2024/01/02 05:00:48;;;;;;;0.40;0.30;;;6.90;99.90;;;;;;5034578;28;20251;-81
2024/01/02 05:03:15;;;;;;;0.63;0.40;;;7.00;99.90;;;;;;5033727;28;20259;-82
2024/01/02 05:05:42;;;;;;;0.50;0.40;;;7.00;99.90;;;;;;5024953;28;20200;-82
2024/01/02 05:08:08;;;;;;;0.40;0.40;;;7.00;99.90;;;;;;5030068;28;20211;-82
2024/01/02 05:10:36;;;;;;;0.77;0.40;;;7.00;99.90;;;;;;5030334;28;20217;-81
2024/01/02 05:13:03;;;;;;;0.40;0.40;;;7.00;99.90;;;;;;5026020;28;20200;-81
2024/01/02 05:15:31;;;;;;;0.45;0.40;;;7.00;99.90;;;;;;5037340;28;20200;-82
2024/01/02 05:17:58;;;;;;;0.40;0.30;;;7.10;99.90;;;;;;5036919;28;20196;-82
2024/01/02 05:20:25;;;;;;;0.40;0.38;;;7.10;99.90;;;;;;5029173;28;20200;-82
2024/01/02 05:22:52;;;;;;;0.50;0.50;;;7.10;99.90;;;;;;5033248;28;20197;-82
2024/01/02 05:25:18;;;;;;;0.40;0.38;;;7.20;99.90;;;;;;5017801;28;20200;-81
2024/01/02 05:27:45;;;;;;;0.50;0.40;;;7.20;99.90;;;;;;5033964;28;20200;-82
2024/01/02 05:30:13;;;;;;;0.40;0.40;;;7.30;99.90;;;;;;5024388;28;20218;-82
2024/01/02 05:32:41;;;;;;;0.47;0.40;;;7.20;99.90;;;;;;5026800;28;20596;-82
2024/01/02 05:35:08;;;;;;;0.40;0.40;;;7.20;99.90;;;;;;5031798;28;20219;-82
2024/01/02 05:37:35;;;;;;;0.40;0.30;;;7.30;99.90;;;;;;5027650;28;20199;-82
2024/01/02 05:40:03;;;;;;;0.40;0.40;;;7.30;99.90;;;;;;5031902;28;20215;-82
2024/01/02 05:42:29;;;;;;;1.23;0.50;;;7.30;99.90;;;;;;5028265;28;20196;-82
2024/01/02 05:44:56;;;;;;;0.40;0.30;;;7.40;99.90;;;;;;5028502;28;20216;-82
2024/01/02 05:47:23;;;;;;;0.40;0.40;;;7.40;99.90;;;;;;5028369;28;20203;-82
2024/01/02 05:49:51;;;;;;;0.40;0.40;;;7.40;99.90;;;;;;5010061;28;20648;-82
2024/01/02 05:52:18;;;;;;;0.40;0.40;;;7.50;99.90;;;;;;5026932;28;20206;-82
2024/01/02 05:54:44;;;;;;;0.40;0.30;;;7.50;99.90;;;;;;5024907;28;20222;-82
2024/01/02 05:57:12;;;;;;;0.43;0.38;;;7.50;99.90;;;;;;5025944;28;20200;-81
2024/01/02 05:59:39;;;;;;;0.50;0.50;;;7.60;99.90;;;;;;5033455;28;20215;-82
2024/01/02 06:02:05;;;;;;;0.65;0.50;;;7.60;99.90;;;;;;5025352;28;20204;-82
2024/01/02 06:04:32;;;;;;;0.40;0.30;;;7.60;99.90;;;;;;5024993;28;20444;-81
2024/01/02 06:07:00;;;;;;;0.60;0.40;;;7.70;99.90;;;;;;5024500;28;20196;-82
2024/01/02 06:09:27;;;;;;;0.40;0.30;;;7.70;99.90;;;;;;5024661;28;20206;-80
2024/01/02 06:11:54;;;;;;;0.40;0.30;;;7.80;99.90;;;;;;5036312;28;20729;-82
2024/01/02 06:14:20;;;;;;;0.50;0.40;;;7.80;99.90;;;;;;5026922;28;20227;-82
2024/01/02 06:16:47;;;;;;;0.60;0.60;;;7.90;99.90;;;;;;5033444;28;20212;-82
2024/01/02 06:19:17;;;;;;;1.20;0.50;;;7.90;99.90;;;;;;5024765;28;20229;-82
2024/01/02 06:21:44;;;;;;;0.40;0.30;;;8.00;99.90;;;;;;5026798;28;20197;-82
2024/01/02 06:24:12;;;;;;;0.40;0.40;;;8.00;99.90;;;;;;5027542;28;20587;-82
2024/01/02 06:26:39;;;;;;;0.50;0.40;;;8.10;99.90;;;;;;5035746;28;20203;-82
2024/01/02 06:29:06;;;;;;;0.68;0.45;;;8.20;99.90;;;;;;5035553;28;20259;-82
2024/01/02 06:31:33;;;;;;;0.50;0.40;;;8.20;99.90;;;;;;5027313;28;20215;-82
2024/01/02 06:34:00;;;;;;;0.70;0.55;;;8.30;99.90;;;;;;5027820;28;20221;-82
2024/01/02 06:36:26;;;;;;;0.85;0.80;;;8.30;99.90;;;;;;5027268;28;20200;-82
2024/01/02 06:38:53;;;;;;;0.50;0.40;;;8.40;99.90;;;;;;5019919;28;20207;-82
2024/01/02 06:41:21;;;;;;;0.90;0.50;;;8.50;99.90;;;;;;5021867;28;20572;-81
2024/01/02 06:43:48;;;;;;;0.50;0.50;;;8.50;99.90;;;;;;5032733;28;20223;-79
2024/01/02 06:46:15;;;;;;;0.77;0.77;;;8.60;99.90;;;;;;5024888;28;20526;-83
2024/01/02 06:48:42;;;;;;;0.50;0.40;;;8.60;99.90;;;;;;5032423;28;20199;-82
2024/01/02 06:51:08;;;;;;;1.13;0.80;;;8.70;99.90;;;;;;5024472;28;20326;-81
2024/01/02 06:53:35;;;;;;;0.63;0.63;;;8.80;99.90;;;;;;5017064;28;20974;-82
2024/01/02 06:56:03;;;;;;;0.70;0.60;;;8.80;99.90;;;;;;5023813;28;20193;-82
2024/01/02 06:58:31;;;;;;;1.38;0.50;;;8.90;99.90;;;;;;5022770;28;20210;-82
2024/01/02 07:00:57;;;;;;;0.80;0.68;;;8.90;99.90;;;;;;5020112;28;20192;-82
2024/01/02 07:03:24;;;;;;;0.60;0.60;;;9.00;99.90;;;;;;5020692;28;20229;-82
2024/01/02 07:05:51;;;;;;;0.90;0.52;;;9.10;99.90;;;;;;5018283;28;20207;-80
2024/01/02 07:08:18;;;;;;;0.50;0.40;;;9.20;99.90;;;;;;5026939;28;20200;-82
2024/01/02 07:10:44;;;;;;;1.20;1.15;;;9.20;99.90;;;;;;5020935;28;20222;-81
2024/01/02 07:13:11;;;;;;;0.77;0.50;;;9.30;99.90;;;;;;5030416;28;20219;-82
2024/01/02 07:15:40;;;;;;;0.40;0.40;;;9.40;99.90;;;;;;5029738;28;20690;-82
2024/01/02 07:18:06;;;;;;;0.50;0.50;;;9.50;99.90;;;;;;5038225;28;20200;-80
2024/01/02 07:20:33;;;;;;;0.50;0.40;;;9.50;99.90;;;;;;5022041;28;20287;-81
2024/01/02 07:23:00;;;;;;;0.40;0.40;;;9.50;99.90;;;;;;5026976;28;20656;-82
2024/01/02 07:25:26;;;;;;;0.50;0.40;;;9.60;99.90;;;;;;5033897;28;20210;-82
2024/01/02 07:27:56;;;;;;;0.80;0.80;;;9.70;99.90;;;;;;5027239;28;20441;-81
2024/01/02 07:30:22;;;;;;;0.87;0.80;;;9.80;99.90;;;;;;5033970;28;20472;-82
2024/01/02 07:32:50;;;;;;;1.13;1.02;;;9.80;99.90;;;;;;5027310;28;20445;-83
2024/01/02 07:35:17;;;;;;;0.43;0.43;;;9.90;99.90;;;;;;5027045;28;20204;-83
2024/01/02 07:37:44;;;;;;;1.13;0.40;;;9.90;99.90;;;;;;5026732;28;20450;-83
2024/01/02 07:40:12;;;;;;;0.40;0.40;;;9.90;99.90;;;;;;5028180;28;20207;-82
2024/01/02 07:42:39;;;;;;;1.15;1.15;;;9.90;99.90;;;;;;5036493;28;20434;-83
2024/01/02 07:45:06;;;;;;;0.40;0.30;;;10.00;99.90;;;;;;5031373;28;20216;-83
2024/01/02 07:47:34;;;;;;;2.53;1.35;;;10.00;99.90;;;;;;5021803;28;20209;-83
2024/01/02 07:50:04;;;;;;;0.40;0.40;;;10.10;99.90;;;;;;5019685;28;20263;-83
2024/01/02 07:52:31;;;;;;;0.88;0.88;;;10.10;99.90;;;;;;5028069;28;20223;-83
2024/01/02 07:54:58;;;;;;;0.75;0.75;;;10.10;99.90;;;;;;5027800;28;20220;-83
2024/01/02 07:57:25;;;;;;;1.95;1.15;;;10.10;99.90;;;;;;5033447;28;20207;-83
2024/01/02 07:59:52;;;;;;;1.27;0.83;;;10.20;99.90;;;;;;5029318;28;20208;-82
2024/01/02 08:02:18;;;;;;;0.85;0.85;;;10.20;99.90;;;;;;5028979;28;20434;-83
2024/01/02 08:04:45;;;;;;;0.70;0.70;;;10.20;99.90;;;;;;5028403;28;20223;-83
2024/01/02 08:07:13;;;;;;;0.70;0.70;;;10.20;99.90;;;;;;5032248;28;20219;-83
2024/01/02 08:09:40;;;;;;;0.70;0.67;;;10.30;99.90;;;;;;5024979;28;20448;-82
2024/01/02 08:12:07;;;;;;;0.60;0.50;;;10.30;99.90;;;;;;5025381;28;21036;-83
2024/01/02 08:14:34;;;;;;;1.20;1.13;;;10.30;99.90;;;;;;5024363;28;20470;-82
2024/01/02 08:17:01;;;;;;;1.13;1.13;;;10.30;99.90;;;;;;5019027;28;20438;-84
2024/01/02 08:19:28;;;;;;;0.68;0.68;;;10.40;99.90;;;;;;5022008;28;20446;-83
2024/01/02 08:21:55;;;;;;;0.60;0.60;;;10.40;99.90;;;;;;5036306;28;20245;-83
2024/01/02 08:24:23;;;;;;;0.40;0.40;;;10.40;99.90;;;;;;5023553;28;20224;-82
2024/01/02 08:26:50;;;;;;;1.30;1.27;;;10.40;99.90;;;;;;5026930;28;20451;-82
2024/01/02 08:29:17;;;;;;;1.90;1.80;;;10.50;99.90;;;;;;5037242;28;20481;-83
2024/01/02 08:31:44;;;;;;;0.50;0.50;;;10.50;99.90;;;;;;5029396;28;20479;-83
2024/01/02 08:34:11;;;;;;;0.63;0.63;;;10.50;99.90;;;;;;5029291;28;20837;-83
2024/01/02 08:36:37;;;;;;;2.00;1.90;;;10.50;99.90;;;;;;5037060;28;20961;-83
2024/01/02 08:39:05;;;;;;;0.80;0.80;;;10.50;99.90;;;;;;5025365;28;20439;-83
2024/01/02 08:41:36;;;;;;;0.40;0.40;;;10.50;99.90;;;;;;5018054;28;20520;-82
2024/01/02 08:44:03;;;;;;;0.57;0.50;;;10.50;99.90;;;;;;5025817;28;20478;-82
2024/01/02 08:46:30;;;;;;;1.17;0.90;;;10.60;99.90;;;;;;5032892;28;20454;-83
2024/01/02 08:48:57;;;;;;;1.10;1.10;;;10.60;99.90;;;;;;5035543;28;20857;-80
2024/01/02 08:51:24;;;;;;;0.67;0.50;;;10.60;99.90;;;;;;5032286;28;20694;-83
2024/01/02 08:53:50;;;;;;;0.60;0.60;;;10.60;99.90;;;;;;5036086;28;20486;-82
2024/01/02 08:56:17;;;;;;;0.47;0.47;;;10.60;99.90;;;;;;5022619;28;20449;-83
2024/01/02 08:58:45;;;;;;;0.87;0.80;;;10.60;99.90;;;;;;5036198;28;20438;-82
2024/01/02 09:01:12;;;;;;;1.23;1.13;;;10.70;99.90;;;;;;5021289;28;20441;-83
2024/01/02 09:03:39;;;;;;;0.88;0.88;;;10.70;99.90;;;;;;5021697;28;20463;-82
2024/01/02 09:06:06;;;;;;;0.43;0.43;;;10.70;99.90;;;;;;5020841;28;20208;-83
2024/01/02 09:08:32;;;;;;;1.02;1.02;;;10.70;99.90;;;;;;5037423;28;20450;-81
2024/01/02 09:10:59;;;;;;;1.15;1.05;;;10.70;99.90;;;;;;5026801;28;20200;-80
2024/01/02 09:13:26;;;;;;;3.30;2.10;;;10.70;99.90;;;;;;5031167;28;20219;-82
2024/01/02 09:15:54;;;;;;;1.80;0.80;;;10.80;99.90;;;;;;5020576;28;20943;-80
2024/01/02 09:18:21;;;;;;;0.70;0.70;;;10.80;99.90;;;;;;5028874;28;20447;-82
2024/01/02 09:20:48;;;;;;;0.50;0.40;;;10.90;99.90;;;;;;5036053;28;20438;-80
2024/01/02 09:23:15;;;;;;;0.40;0.30;;;10.80;99.90;;;;;;5016793;28;20455;-82
2024/01/02 09:25:47;;;;;;;2.47;2.27;;;10.80;99.90;;;;;;5026398;28;20527;-82
2024/01/02 09:28:16;;;;;;;2.30;0.70;;;10.90;99.90;;;;;;5016965;28;20440;-82
2024/01/02 09:30:43;;;;;;;0.60;0.60;;;10.90;99.90;;;;;;5017579;28;20447;-81
2024/01/02 09:33:11;;;;;;;0.50;0.50;;;10.90;99.90;;;;;;5017804;28;20483;-82
2024/01/02 09:35:39;;;;;;;1.97;1.87;;;10.90;99.90;;;;;;5024645;28;20439;-83
2024/01/02 09:38:05;;;;;;;0.77;0.50;;;11.00;99.90;;;;;;5018434;28;20953;-82
2024/01/02 09:40:49;;;;;;;1.20;1.20;;;11.00;99.90;;;;;;5027484;28;20456;-82
2024/01/02 09:43:22;;;;;;;0.60;0.60;;;10.90;99.90;;;;;;5012679;28;20461;-82
2024/01/02 09:46:03;;;;;;;2.20;1.33;;;11.00;99.90;;;;;;5026941;28;20435;-83
2024/01/02 09:48:42;;;;;;;0.67;0.50;;;11.00;99.90;;;;;;5015765;28;20442;-81
2024/01/02 09:51:17;;;;;;;1.23;1.13;;;10.90;99.90;;;;;;5025013;28;20442;-82
2024/01/02 09:54:06;;;;;;;0.57;0.40;;;10.90;99.90;;;;;;5026172;28;20455;-82
2024/01/02 09:56:42;;;;;;;0.57;0.57;;;10.90;99.90;;;;;;5011612;28;20446;-82
2024/01/02 09:59:19;;;;;;;0.60;0.60;;;10.90;99.90;;;;;;5024514;28;20442;-80
2024/01/02 10:01:57;;;;;;;0.80;0.80;;;10.90;99.90;;;;;;5033108;28;20452;-83
2024/01/02 10:04:45;;;;;;;1.00;1.00;;;10.90;99.90;;;;;;5018348;28;20686;-82
2024/01/02 10:07:42;;;;;;;0.50;0.43;;;10.90;99.90;;;;;;5024397;28;20438;-83
2024/01/02 10:10:18;;;;;;;0.60;0.60;;;10.90;99.90;;;;;;5024483;28;20445;-82
2024/01/02 10:13:03;;;;;;;0.73;0.73;;;10.90;99.90;;;;;;5024271;28;20533;-82
2024/01/02 10:15:37;;;;;;;0.70;0.70;;;10.90;99.90;;;;;;5027858;28;20434;-80
2024/01/02 10:18:16;;;;;;;0.57;0.57;;;10.90;99.90;;;;;;5025848;28;20434;-82
2024/01/02 10:20:59;;;;;;;0.40;0.40;;;10.90;99.90;;;;;;5024539;28;20498;-82
2024/01/02 10:23:39;;;;;;;0.50;0.50;;;10.90;99.90;;;;;;5022296;28;20211;-83
2024/01/02 10:26:08;;;;;;;0.50;0.40;;;10.90;99.90;;;;;;5035202;28;20449;-82
2024/01/02 10:28:36;;;;;;;0.40;0.40;;;10.90;99.90;;;;;;5021045;28;20432;-82
2024/01/02 10:31:08;;;;;;;0.50;0.50;;;10.90;99.90;;;;;;5032518;28;20437;-82
2024/01/02 10:33:42;;;;;;;0.60;0.60;;;10.90;99.90;;;;;;5026743;28;20477;-82
2024/01/02 10:36:12;;;;;;;1.37;1.20;;;10.90;99.90;;;;;;5026656;28;20821;-82
2024/01/02 10:39:04;;;;;;;0.60;0.43;;;10.80;99.90;;;;;;5016746;28;20443;-82
2024/01/02 10:41:56;;;;;;;0.40;0.30;;;10.80;99.90;;;;;;5018048;28;20443;-82
2024/01/02 10:44:32;;;;;;;0.50;0.50;;;10.80;99.90;;;;;;5020341;28;20914;-82
2024/01/02 10:47:02;;;;;;;0.40;0.33;;;10.90;99.90;;;;;;5025943;28;20443;-82
2024/01/02 10:49:34;;;;;;;0.40;0.40;;;10.90;99.90;;;;;;5028460;28;20445;-83
2024/01/02 10:52:13;;;;;;;0.40;0.37;;;10.90;99.90;;;;;;5025524;28;20846;-80
2024/01/02 10:54:53;;;;;;;3.27;1.03;;;10.90;99.90;;;;;;5024048;28;20451;-82
2024/01/02 10:57:28;;;;;;;0.50;0.40;;;10.90;99.90;;;;;;5015808;28;20934;-81
2024/01/02 11:00:07;;;;;;;0.53;0.40;;;10.90;99.90;;;;;;5023053;28;20434;-82
2024/01/02 11:02:47;;;;;;;0.50;0.50;;;11.00;99.90;;;;;;5021331;28;20814;-82
2024/01/02 11:05:20;;;;;;;0.40;0.30;;;11.00;99.90;;;;;;5018149;28;20478;-82
2024/01/02 11:08:00;;;;;;;0.90;0.50;;;11.00;99.90;;;;;;5019209;28;20436;-82
2024/01/02 11:10:32;;;;;;;0.67;0.67;;;11.00;99.90;;;;;;5019044;28;20438;-83
2024/01/02 11:13:03;;;;;;;0.60;0.47;;;11.00;99.90;;;;;;5028458;28;20474;-82
2024/01/02 11:15:35;;;;;;;0.40;0.40;;;11.00;99.90;;;;;;5013596;28;20448;-82
2024/01/02 11:18:04;;;;;;;0.70;0.60;;;11.00;99.90;;;;;;5014663;28;20515;-81
2024/01/02 11:20:36;;;;;;;0.60;0.50;;;11.10;99.90;;;;;;5019081;28;20504;-82
2024/01/02 11:23:10;;;;;;;0.40;0.40;;;11.00;99.90;;;;;;5024604;28;20438;-81
2024/01/02 11:25:45;;;;;;;0.50;0.40;;;11.10;99.90;;;;;;5013840;28;20458;-82
2024/01/02 11:28:13;;;;;;;0.50;0.40;;;11.10;99.90;;;;;;5024508;28;20449;-82
2024/01/02 11:30:41;;;;;;;0.40;0.40;;;11.20;99.90;;;;;;5018933;28;20444;-80
2024/01/02 11:33:20;;;;;;;0.63;0.60;;;11.20;99.90;;;;;;5023065;28;20480;-81
2024/01/02 11:35:57;;;;;;;0.40;0.40;;;11.20;99.90;;;;;;5026303;28;20442;-81
2024/01/02 11:38:32;;;;;;;0.40;0.40;;;11.20;99.90;;;;;;5022419;28;20465;-81
2024/01/02 11:41:08;;;;;;;0.80;0.80;;;11.20;99.90;;;;;;5024050;28;20431;-81
2024/01/02 11:43:48;;;;;;;0.40;0.40;;;11.20;99.90;;;;;;5027964;28;20450;-82
2024/01/02 11:46:16;;;;;;;0.40;0.40;;;11.20;99.90;;;;;;5027249;28;20463;-84
2024/01/02 11:48:52;;;;;;;0.40;0.40;;;11.20;99.90;;;;;;5028677;28;20862;-83
2024/01/02 11:51:24;;;;;;;0.60;0.40;;;11.10;99.90;;;;;;5027806;28;20474;-82
2024/01/02 11:54:13;;;;;;;0.50;0.50;;;11.10;99.90;;;;;;5023453;28;20471;-79
2024/01/02 11:56:42;;;;;;;0.50;0.50;;;11.00;99.90;;;;;;5027738;28;20449;-82
2024/01/02 11:59:19;;;;;;;0.40;0.37;;;10.90;99.90;;;;;;5020471;28;20439;-83
2024/01/02 12:01:56;;;;;;;0.50;0.40;;;10.90;99.90;;;;;;5024772;28;20437;-82
2024/01/02 12:04:46;;;;;;;0.50;0.40;;;10.70;99.90;;;;;;5034570;28;20462;-80
2024/01/02 12:07:19;;;;;;;0.40;0.40;;;10.60;99.90;;;;;;5019489;28;20443;-82
2024/01/02 12:09:49;;;;;;;1.67;0.50;;;10.50;99.90;;;;;;5037828;28;20198;-84
2024/01/02 12:12:32;;;;;;;0.50;0.40;;;10.40;99.90;;;;;;5022102;28;20590;-83
2024/01/02 12:15:05;;;;;;;0.60;0.57;;;10.30;99.90;;;;;;5030936;28;20218;-83
2024/01/02 12:17:39;;;;;;;0.40;0.40;;;10.30;99.90;;;;;;5018504;28;20444;-83
2024/01/02 12:20:08;;;;;;;0.40;0.30;;;10.20;99.90;;;;;;5023029;28;20200;-84
2024/01/02 12:22:36;;;;;;;0.70;0.40;;;10.20;99.90;;;;;;5018766;28;20196;-84
2024/01/02 12:25:06;;;;;;;0.40;0.40;;;10.10;99.90;;;;;;5029109;28;20476;-84
2024/01/02 12:27:37;;;;;;;0.82;0.82;;;10.10;99.90;;;;;;5027302;28;20263;-83
2024/01/02 12:30:06;;;;;;;0.50;0.40;;;10.10;99.90;;;;;;5021161;28;20283;-83
2024/01/02 12:32:50;;;;;;;0.40;0.30;;;10.10;99.90;;;;;;5026786;28;20592;-84
2024/01/02 12:35:27;;;;;;;0.40;0.40;;;10.00;99.90;;;;;;5034543;28;20200;-85
2024/01/02 12:38:05;;;;;;;0.40;0.30;;;10.00;99.90;;;;;;5027232;28;20431;-85
2024/01/02 12:40:35;;;;;;;0.60;0.40;;;10.00;99.90;;;;;;5026068;28;20201;-85
2024/01/02 12:43:06;;;;;;;0.40;0.30;;;10.00;99.90;;;;;;5024444;28;20247;-83
2024/01/02 12:45:35;;;;;;;0.40;0.40;;;10.00;99.90;;;;;;5016896;28;20203;-85
2024/01/02 12:48:06;;;;;;;0.40;0.30;;;10.00;99.90;;;;;;5025490;28;20558;-83
2024/01/02 12:50:38;;;;;;;0.40;0.30;;;10.00;99.90;;;;;;5021553;28;20591;-83
2024/01/02 12:53:09;;;;;;;0.40;0.30;;;10.00;99.90;;;;;;5028785;28;20296;-84
2024/01/02 12:55:44;;;;;;;0.40;0.30;;;10.00;99.90;;;;;;5025193;28;20629;-85
2024/01/02 12:58:12;;;;;;;0.40;0.40;;;10.00;99.90;;;;;;5026397;28;20200;-84
2024/01/02 13:00:39;;;;;;;0.40;0.30;;;10.00;99.90;;;;;;5024509;28;20200;-83
2024/01/02 13:03:14;;;;;;;0.50;0.45;;;9.90;99.90;;;;;;5025514;28;20223;-82